Time;durP1;ratioP1;P1;durP2;ratioP2;P2;SDS_P1;SDS_P2;PMS_P1;PMS_P2;Temp;Humidity;BMP_temperature;BMP_pressure;BME280_temperature;BME280_humidity;BME280_pressure;Samples;Min_cycle;Max_cycle;Signal;HPM_P1;HPM_P2
2022/01/20 00:01:18;;;;;;;16.70;11.75;;;9.20;96.70;;;;;;5082376;28;20040;-79
2022/01/20 00:03:36;;;;;;;15.43;11.52;;;9.10;96.70;;;;;;5077261;28;20052;-79
2022/01/20 00:06:57;;;;;;;15.10;12.80;;;9.10;96.70;;;;;;5074137;28;20064;-79
2022/01/20 00:25:55;;;;;;;15.75;12.02;;;9.00;96.70;;;;;;5073808;28;20080;-80
2022/01/20 00:28:38;;;;;;;14.23;11.70;;;9.00;96.70;;;;;;5059871;28;20134;-77
2022/01/20 00:31:25;;;;;;;13.82;11.20;;;9.00;96.70;;;;;;5071844;28;20056;-76
2022/01/20 00:37:38;;;;;;;17.00;13.18;;;9.00;96.70;;;;;;5077646;28;19928;-77
2022/01/20 00:39:35;;;;;;;18.20;14.20;;;9.00;96.70;;;;;;5049854;28;20106;-76
2022/01/20 00:42:03;;;;;;;15.80;13.18;;;8.90;96.70;;;;;;5078360;28;20052;-76
2022/01/20 00:44:32;;;;;;;16.17;14.00;;;8.90;96.70;;;;;;5077732;28;20042;-76
2022/01/20 00:47:01;;;;;;;17.67;13.82;;;8.80;96.70;;;;;;5079562;28;20048;-75
2022/01/20 00:49:29;;;;;;;19.35;14.95;;;8.80;96.70;;;;;;5073264;28;20047;-77
2022/01/20 00:51:57;;;;;;;17.90;14.73;;;8.70;96.70;;;;;;5081471;28;20036;-76
2022/01/20 00:54:25;;;;;;;17.27;13.82;;;8.70;96.70;;;;;;5062413;28;20388;-76
2022/01/20 00:56:54;;;;;;;20.50;14.88;;;8.70;96.70;;;;;;5078835;28;20382;-76
2022/01/20 00:59:22;;;;;;;19.42;14.95;;;8.70;96.70;;;;;;5079597;28;20051;-76
2022/01/20 01:01:52;;;;;;;18.70;15.45;;;8.80;96.70;;;;;;5079830;28;20119;-76
2022/01/20 01:04:20;;;;;;;21.45;14.30;;;8.80;96.70;;;;;;5083163;28;20032;-76
2022/01/20 01:09:26;;;;;;;15.85;13.93;;;8.70;96.70;;;;;;5072655;28;20037;-76
2022/01/20 01:11:59;;;;;;;19.15;14.02;;;8.70;96.70;;;;;;5077203;28;20507;-77
2022/01/20 01:14:29;;;;;;;17.17;13.85;;;8.70;96.70;;;;;;5073555;28;20146;-76
2022/01/20 01:22:24;;;;;;;18.75;14.55;;;8.70;96.70;;;;;;5075721;28;20119;-76
2022/01/20 01:24:55;;;;;;;18.00;14.23;;;8.60;96.70;;;;;;5075444;28;20047;-76
2022/01/20 01:27:26;;;;;;;19.60;14.52;;;8.70;96.70;;;;;;5069207;28;20064;-76
2022/01/20 01:30:09;;;;;;;18.27;14.10;;;8.70;96.70;;;;;;5072481;28;20040;-76
2022/01/20 01:32:58;;;;;;;18.13;13.88;;;8.70;96.70;;;;;;5074162;28;20306;-76
2022/01/20 01:35:27;;;;;;;18.77;13.95;;;8.70;96.70;;;;;;5060886;28;20048;-76
2022/01/20 01:40:26;;;;;;;18.92;13.45;;;8.70;96.70;;;;;;5084804;28;20048;-76
2022/01/20 01:42:55;;;;;;;21.23;14.50;;;8.70;96.70;;;;;;5071121;28;20047;-76
2022/01/20 01:45:27;;;;;;;18.13;13.38;;;8.80;96.70;;;;;;5075671;28;20293;-76
2022/01/20 01:47:58;;;;;;;15.63;13.13;;;8.80;96.70;;;;;;5067272;28;20037;-76
2022/01/20 01:50:27;;;;;;;18.10;14.50;;;8.80;96.70;;;;;;5076409;28;20398;-76
2022/01/20 01:52:57;;;;;;;16.77;12.68;;;8.80;96.70;;;;;;5075288;28;20036;-76
2022/01/20 01:55:25;;;;;;;16.88;13.20;;;8.80;96.70;;;;;;5059600;28;20068;-76
2022/01/20 01:57:54;;;;;;;18.00;13.05;;;8.80;96.70;;;;;;5075138;28;20071;-76
2022/01/20 02:00:23;;;;;;;16.65;13.93;;;8.80;96.70;;;;;;5067903;28;20455;-76
2022/01/20 02:03:00;;;;;;;18.88;13.07;;;8.80;96.70;;;;;;5063958;28;20048;-76
2022/01/20 02:08:56;;;;;;;13.70;11.90;;;8.80;96.70;;;;;;5058743;28;20602;-76
2022/01/20 02:19:56;;;;;;;15.55;12.35;;;8.80;96.70;;;;;;5069276;28;20150;-76
2022/01/20 02:22:50;;;;;;;17.33;12.18;;;8.70;96.70;;;;;;5078943;28;20224;-76
2022/01/20 02:25:35;;;;;;;15.65;12.18;;;8.70;96.70;;;;;;5069581;28;20135;-76
2022/01/20 02:28:05;;;;;;;16.08;11.73;;;8.70;96.70;;;;;;5050231;28;20032;-76
2022/01/20 02:30:34;;;;;;;16.10;12.68;;;8.70;96.70;;;;;;5072056;28;20059;-76
2022/01/20 02:33:05;;;;;;;18.05;12.65;;;8.70;96.70;;;;;;5076943;28;20040;-76
2022/01/20 02:35:37;;;;;;;13.45;11.48;;;8.70;96.70;;;;;;5070160;28;20082;-76
2022/01/20 02:38:21;;;;;;;16.10;11.93;;;8.70;96.70;;;;;;5070244;28;20064;-76
2022/01/20 02:46:23;;;;;;;16.35;14.50;;;8.70;96.70;;;;;;5080149;28;20451;-76
2022/01/20 02:48:52;;;;;;;18.17;13.82;;;8.80;96.70;;;;;;5068153;28;20032;-76
2022/01/20 02:51:22;;;;;;;16.30;12.57;;;8.80;96.70;;;;;;5075267;28;20231;-76
2022/01/20 02:53:54;;;;;;;16.20;11.95;;;8.70;96.70;;;;;;5068972;28;20163;-76
2022/01/20 02:56:22;;;;;;;15.38;12.98;;;8.60;96.70;;;;;;5066638;28;20063;-76
2022/01/20 02:58:51;;;;;;;16.10;12.45;;;8.60;96.70;;;;;;5075290;28;20048;-76
2022/01/20 03:01:19;;;;;;;14.60;11.82;;;8.60;96.70;;;;;;5082585;28;20048;-76
2022/01/20 03:03:47;;;;;;;15.70;12.18;;;8.60;96.70;;;;;;5058370;28;20520;-76
2022/01/20 03:06:16;;;;;;;15.05;12.52;;;8.60;96.70;;;;;;5078209;28;20387;-76
2022/01/20 03:08:45;;;;;;;16.42;13.32;;;8.60;96.70;;;;;;5085493;28;20118;-76
2022/01/20 03:11:14;;;;;;;16.90;13.05;;;8.60;96.70;;;;;;5083707;28;20133;-76
2022/01/20 03:13:42;;;;;;;16.80;13.50;;;8.60;96.70;;;;;;5080256;28;20051;-76
2022/01/20 03:16:11;;;;;;;14.70;13.07;;;8.70;96.70;;;;;;5077935;28;20259;-76
2022/01/20 03:18:39;;;;;;;16.50;12.95;;;8.70;96.70;;;;;;5078057;28;20443;-76
2022/01/20 03:21:07;;;;;;;15.02;12.38;;;8.70;96.70;;;;;;5077316;28;20090;-76
2022/01/20 03:23:35;;;;;;;16.42;13.45;;;8.70;96.70;;;;;;5074624;28;20494;-76
2022/01/20 03:26:05;;;;;;;17.25;12.80;;;8.80;96.70;;;;;;5084439;28;20097;-76
2022/01/20 03:28:33;;;;;;;17.67;12.80;;;8.70;96.70;;;;;;5072731;28;20049;-76
2022/01/20 03:31:02;;;;;;;15.05;12.52;;;8.70;96.70;;;;;;5069361;28;20055;-76
2022/01/20 03:33:30;;;;;;;15.05;12.93;;;8.70;96.70;;;;;;5072992;28;20437;-76
2022/01/20 03:35:59;;;;;;;16.88;13.07;;;8.70;96.70;;;;;;5081704;28;20036;-76
2022/01/20 03:38:51;;;;;;;17.73;14.68;;;8.70;96.70;;;;;;5058061;28;20056;-76
2022/01/20 03:41:22;;;;;;;16.95;13.07;;;8.70;96.70;;;;;;5081196;28;20052;-76
2022/01/20 03:43:56;;;;;;;17.15;13.10;;;8.70;96.70;;;;;;5058305;28;20056;-76
2022/01/20 03:46:24;;;;;;;14.35;12.30;;;8.60;96.70;;;;;;5077741;28;20126;-76
2022/01/20 03:48:56;;;;;;;14.70;13.07;;;8.70;96.70;;;;;;5079452;28;20039;-76
2022/01/20 03:51:25;;;;;;;14.02;12.50;;;8.70;96.70;;;;;;5076269;28;20838;-76
2022/01/20 03:53:57;;;;;;;15.60;12.70;;;8.70;96.70;;;;;;5085135;28;20695;-76
2022/01/20 03:57:02;;;;;;;16.15;12.48;;;8.70;96.70;;;;;;5058205;28;20632;-76
2022/01/20 04:00:10;;;;;;;15.70;12.73;;;8.70;96.70;;;;;;5082143;28;20067;-76
2022/01/20 04:02:41;;;;;;;16.55;13.35;;;8.70;96.70;;;;;;5083798;28;20047;-76
2022/01/20 04:05:30;;;;;;;17.00;13.73;;;8.60;96.70;;;;;;5076987;28;20484;-76
2022/01/20 04:08:26;;;;;;;17.23;12.88;;;8.70;96.70;;;;;;5080654;28;20079;-76
2022/01/20 04:10:54;;;;;;;14.82;12.48;;;8.70;96.70;;;;;;5081863;28;20081;-76
2022/01/20 04:13:29;;;;;;;14.20;12.52;;;8.70;96.70;;;;;;5073117;28;20051;-76
2022/01/20 04:16:01;;;;;;;17.33;13.77;;;8.70;96.70;;;;;;5083087;28;20682;-76
2022/01/20 04:18:29;;;;;;;20.67;13.27;;;8.70;96.70;;;;;;5084279;28;20071;-76
2022/01/20 04:20:58;;;;;;;13.52;11.88;;;8.60;96.70;;;;;;5075250;28;20512;-76
2022/01/20 04:23:26;;;;;;;15.63;13.05;;;8.60;96.70;;;;;;5070702;28;20120;-76
2022/01/20 04:25:54;;;;;;;16.83;13.02;;;8.60;96.70;;;;;;5067654;28;20055;-77
2022/01/20 04:28:24;;;;;;;15.98;13.05;;;8.60;96.70;;;;;;5068949;28;20371;-76
2022/01/20 04:30:53;;;;;;;14.15;11.73;;;8.60;96.70;;;;;;5081094;28;20154;-76
2022/01/20 04:33:21;;;;;;;14.10;11.60;;;8.60;96.70;;;;;;5072820;28;20050;-76
2022/01/20 04:35:49;;;;;;;15.75;11.25;;;8.60;96.70;;;;;;5079011;28;20040;-76
2022/01/20 04:38:18;;;;;;;14.90;11.52;;;8.70;96.70;;;;;;5071669;28;20547;-76
2022/01/20 04:40:46;;;;;;;12.50;10.20;;;8.60;96.70;;;;;;5078390;28;20085;-76
2022/01/20 04:43:15;;;;;;;12.27;10.60;;;8.60;96.70;;;;;;5070206;28;20048;-76
2022/01/20 04:45:52;;;;;;;12.18;10.20;;;8.50;96.70;;;;;;5075708;28;20508;-76
2022/01/20 04:48:29;;;;;;;13.68;10.25;;;8.50;96.70;;;;;;5076517;28;20449;-76
2022/01/20 04:59:21;;;;;;;12.40;9.50;;;8.40;96.70;;;;;;5074236;28;20504;-76
2022/01/20 05:01:51;;;;;;;11.48;9.60;;;8.40;96.70;;;;;;5064348;28;20515;-76
2022/01/20 05:04:52;;;;;;;12.15;9.75;;;8.40;96.70;;;;;;5020182;28;20045;-76
2022/01/20 05:07:41;;;;;;;14.20;11.48;;;8.30;96.70;;;;;;5017694;28;20049;-76
2022/01/20 05:10:13;;;;;;;12.23;10.05;;;8.30;96.70;;;;;;5017130;28;20048;-76
2022/01/20 05:15:22;;;;;;;13.40;10.88;;;8.30;96.70;;;;;;5003456;28;20041;-76
2022/01/20 05:17:54;;;;;;;13.25;10.93;;;8.30;96.70;;;;;;5013170;28;20069;-76
2022/01/20 05:20:22;;;;;;;13.07;10.60;;;8.40;96.70;;;;;;5018931;28;20892;-76
2022/01/20 05:22:51;;;;;;;13.20;11.02;;;8.40;96.70;;;;;;5019916;28;20100;-76
2022/01/20 05:25:22;;;;;;;13.75;10.88;;;8.30;96.70;;;;;;5001617;28;20049;-76
2022/01/20 05:27:51;;;;;;;16.80;10.88;;;8.40;96.70;;;;;;5002207;28;20168;-76
2022/01/20 05:30:20;;;;;;;13.30;10.13;;;8.20;96.70;;;;;;4988117;28;20081;-76
2022/01/20 05:33:12;;;;;;;17.05;10.43;;;8.20;96.70;;;;;;5012860;28;20049;-76
2022/01/20 05:35:41;;;;;;;14.73;10.98;;;8.20;96.70;;;;;;4999771;28;20111;-76
2022/01/20 05:38:12;;;;;;;13.95;10.55;;;8.20;96.70;;;;;;5016318;28;20427;-76
2022/01/20 05:40:41;;;;;;;13.43;10.90;;;8.30;96.70;;;;;;5034296;28;20533;-76
2022/01/20 05:43:10;;;;;;;14.07;11.40;;;8.30;96.70;;;;;;5074802;28;20101;-76
2022/01/20 05:45:39;;;;;;;16.35;12.52;;;8.30;96.70;;;;;;5098773;28;20049;-76
2022/01/20 05:48:14;;;;;;;14.88;12.23;;;8.30;96.70;;;;;;5056659;28;20044;-76
2022/01/20 05:50:46;;;;;;;15.02;11.57;;;8.30;96.70;;;;;;5066614;28;20122;-77
2022/01/20 05:53:15;;;;;;;14.02;12.05;;;8.30;96.70;;;;;;5065399;28;20083;-77
2022/01/20 05:55:43;;;;;;;13.82;12.35;;;8.30;96.70;;;;;;5071423;28;20041;-76
2022/01/20 05:58:12;;;;;;;15.25;12.90;;;8.40;96.70;;;;;;5080104;28;20139;-76
2022/01/20 06:00:40;;;;;;;13.45;12.02;;;8.40;96.70;;;;;;5070239;28;20498;-76
2022/01/20 06:05:57;;;;;;;12.77;11.43;;;8.50;96.70;;;;;;5076751;28;20694;-76
2022/01/20 06:08:27;;;;;;;12.45;11.15;;;8.50;96.70;;;;;;5075937;28;20505;-76
2022/01/20 06:10:56;;;;;;;12.20;10.80;;;8.60;96.70;;;;;;5058155;28;20557;-76
2022/01/20 06:13:26;;;;;;;12.10;10.80;;;8.60;96.70;;;;;;5055794;28;20049;-76
2022/01/20 06:15:55;;;;;;;11.57;10.38;;;8.60;96.70;;;;;;5064610;28;21131;-76
2022/01/20 06:18:23;;;;;;;13.07;11.32;;;8.60;96.70;;;;;;5078739;28;20040;-76
2022/01/20 06:20:57;;;;;;;13.27;11.77;;;8.60;96.70;;;;;;5073780;28;20182;-76
2022/01/20 06:23:28;;;;;;;12.93;11.27;;;8.60;96.70;;;;;;5073885;28;20036;-76
2022/01/20 06:25:57;;;;;;;13.38;11.82;;;8.60;96.70;;;;;;5078446;28;20058;-76
2022/01/20 06:28:27;;;;;;;14.05;12.55;;;8.60;96.70;;;;;;5063142;28;20044;-76
2022/01/20 06:30:55;;;;;;;13.65;12.15;;;8.50;96.70;;;;;;5078242;28;20094;-76
2022/01/20 06:33:24;;;;;;;15.93;12.38;;;8.50;96.70;;;;;;5073329;28;20052;-76
2022/01/20 06:35:57;;;;;;;15.73;12.23;;;8.50;96.70;;;;;;5079813;28;20044;-76
2022/01/20 06:38:28;;;;;;;13.95;12.13;;;8.50;96.70;;;;;;5076200;28;20036;-76
2022/01/20 06:40:59;;;;;;;16.27;12.95;;;8.50;96.70;;;;;;5082879;28;20076;-76
2022/01/20 06:43:30;;;;;;;15.00;11.82;;;8.50;96.70;;;;;;5073472;28;20133;-77
2022/01/20 06:45:59;;;;;;;14.40;11.40;;;8.50;96.70;;;;;;5083775;28;20171;-76
2022/01/20 06:48:46;;;;;;;15.23;11.60;;;8.60;96.70;;;;;;5073040;28;20136;-76
2022/01/20 06:51:28;;;;;;;15.80;12.15;;;8.60;96.70;;;;;;5076661;28;20055;-76
2022/01/20 06:53:57;;;;;;;14.90;12.15;;;8.60;96.70;;;;;;5075778;28;20042;-83
2022/01/20 06:56:25;;;;;;;15.02;11.85;;;8.60;96.70;;;;;;5064172;28;20040;-77
2022/01/20 06:59:10;;;;;;;18.10;12.93;;;8.60;96.70;;;;;;5078988;28;20055;-77
2022/01/20 07:01:39;;;;;;;13.40;10.93;;;8.50;96.70;;;;;;5073187;28;20148;-76
2022/01/20 07:04:10;;;;;;;13.80;11.70;;;8.60;96.70;;;;;;5072134;28;20044;-75
2022/01/20 07:06:40;;;;;;;16.60;12.25;;;8.60;96.70;;;;;;5079519;28;20591;-79
2022/01/20 07:09:27;;;;;;;13.07;11.68;;;8.50;96.70;;;;;;5081715;28;20085;-75
2022/01/20 07:12:00;;;;;;;15.77;11.88;;;8.50;96.70;;;;;;5079225;28;20051;-76
2022/01/20 07:14:32;;;;;;;15.95;13.90;;;8.60;96.70;;;;;;5080171;28;20466;-74
2022/01/20 07:17:01;;;;;;;14.52;13.02;;;8.60;96.70;;;;;;5071666;28;20076;-75
2022/01/20 07:19:29;;;;;;;12.88;10.70;;;8.60;96.70;;;;;;5054506;28;20059;-74
2022/01/20 07:22:00;;;;;;;15.73;12.50;;;8.70;96.70;;;;;;5075447;28;20429;-75
2022/01/20 07:24:30;;;;;;;14.15;12.07;;;8.70;96.70;;;;;;5060164;28;20126;-74
2022/01/20 07:27:08;;;;;;;15.27;12.27;;;8.70;96.70;;;;;;5074483;28;20033;-75
2022/01/20 07:29:38;;;;;;;14.63;11.45;;;8.70;96.70;;;;;;5079647;28;20047;-74
2022/01/20 07:32:08;;;;;;;16.52;11.60;;;8.70;96.70;;;;;;5095297;27;20040;-78
2022/01/20 07:34:36;;;;;;;15.02;13.40;;;8.70;96.70;;;;;;5076256;28;20043;-77
2022/01/20 07:37:07;;;;;;;17.63;13.02;;;8.60;96.70;;;;;;5075615;28;20308;-76
2022/01/20 07:39:35;;;;;;;18.10;14.18;;;8.60;96.70;;;;;;5080266;28;20055;-77
2022/01/20 07:42:05;;;;;;;18.48;13.25;;;8.60;96.70;;;;;;5056891;28;20062;-76
2022/01/20 07:44:52;;;;;;;17.17;12.80;;;8.50;96.70;;;;;;5075710;28;20071;-76
2022/01/20 07:47:31;;;;;;;15.77;11.00;;;8.60;96.70;;;;;;5073300;28;20128;-77
2022/01/20 07:50:00;;;;;;;13.15;10.55;;;8.60;96.70;;;;;;5077801;28;20152;-74
2022/01/20 07:52:31;;;;;;;13.13;10.27;;;8.70;96.70;;;;;;5072349;28;20060;-76
2022/01/20 07:55:01;;;;;;;13.88;10.90;;;8.70;96.70;;;;;;5063712;28;20584;-77
2022/01/20 07:57:29;;;;;;;14.88;10.30;;;8.80;96.70;;;;;;5082518;28;20048;-75
2022/01/20 07:59:57;;;;;;;14.07;10.23;;;8.80;96.70;;;;;;5077685;28;20051;-78
2022/01/20 08:02:32;;;;;;;14.05;10.02;;;8.80;96.70;;;;;;5075912;28;20387;-78
2022/01/20 08:05:02;;;;;;;14.65;10.48;;;8.90;96.70;;;;;;5072885;28;20037;-78
2022/01/20 08:07:32;;;;;;;13.27;11.07;;;8.90;96.70;;;;;;5064403;28;20594;-78
2022/01/20 08:10:01;;;;;;;14.35;10.20;;;8.90;96.70;;;;;;5073553;28;20044;-78
2022/01/20 08:12:30;;;;;;;14.27;10.70;;;8.90;96.70;;;;;;5078299;28;20044;-74
2022/01/20 08:15:18;;;;;;;16.65;10.85;;;9.00;96.70;;;;;;5069953;28;20393;-76
2022/01/20 08:18:08;;;;;;;14.48;9.98;;;9.00;96.70;;;;;;5081132;28;20051;-76
2022/01/20 08:20:37;;;;;;;16.02;10.13;;;9.10;96.70;;;;;;5064296;28;20048;-74
2022/01/20 08:23:10;;;;;;;13.65;9.98;;;9.10;96.70;;;;;;5081906;28;20040;-77
2022/01/20 08:25:38;;;;;;;13.38;10.45;;;9.10;96.70;;;;;;5077500;28;20105;-76
2022/01/20 08:28:06;;;;;;;12.40;9.75;;;9.20;96.70;;;;;;5074381;28;20044;-77
2022/01/20 08:30:41;;;;;;;11.70;9.93;;;9.20;96.70;;;;;;5060931;28;20067;-78
2022/01/20 08:33:10;;;;;;;11.95;10.32;;;9.30;96.70;;;;;;5068317;28;20048;-77
2022/01/20 08:35:43;;;;;;;13.02;9.60;;;9.40;96.70;;;;;;5072345;28;20052;-76
2022/01/20 08:38:24;;;;;;;11.57;9.38;;;9.50;96.70;;;;;;5075903;28;20899;-76
2022/01/20 08:40:53;;;;;;;10.02;8.90;;;9.60;96.70;;;;;;5080199;28;20048;-76
2022/01/20 08:43:22;;;;;;;11.57;9.27;;;9.60;96.70;;;;;;5085630;28;20044;-73
2022/01/20 08:45:50;;;;;;;11.88;9.82;;;9.60;96.70;;;;;;5078440;28;20101;-73
2022/01/20 08:48:21;;;;;;;10.95;9.52;;;9.70;96.70;;;;;;5055406;28;20059;-76
2022/01/20 08:51:08;;;;;;;12.70;8.05;;;9.80;96.70;;;;;;5070295;28;20055;-76
2022/01/20 08:53:50;;;;;;;11.05;7.25;;;9.90;96.70;;;;;;5072267;28;20046;-75
2022/01/20 08:56:23;;;;;;;8.60;6.43;;;10.00;96.70;;;;;;5074344;28;20052;-76
2022/01/20 08:58:51;;;;;;;6.65;5.78;;;10.00;96.70;;;;;;5078558;28;20761;-76
2022/01/20 09:01:20;;;;;;;8.20;5.57;;;10.10;96.70;;;;;;5077895;28;20052;-75
2022/01/20 09:03:48;;;;;;;6.45;4.88;;;10.20;96.70;;;;;;5074583;28;20536;-75
2022/01/20 09:06:18;;;;;;;5.00;4.50;;;10.30;96.70;;;;;;5073159;28;20104;-75
2022/01/20 09:08:56;;;;;;;4.28;3.35;;;10.40;96.70;;;;;;5072520;28;20042;-74
2022/01/20 09:11:30;;;;;;;5.97;4.40;;;10.50;96.70;;;;;;5075719;28;20493;-74
2022/01/20 09:16:51;;;;;;;6.80;4.47;;;10.70;96.70;;;;;;5077233;28;20734;-76
2022/01/20 09:19:23;;;;;;;6.63;4.43;;;10.80;96.70;;;;;;5075628;28;20075;-76
2022/01/20 09:21:58;;;;;;;6.65;4.30;;;10.80;96.70;;;;;;5077948;28;20042;-76
2022/01/20 09:24:30;;;;;;;7.15;3.85;;;10.90;96.70;;;;;;5075057;28;20051;-76
2022/01/20 09:27:01;;;;;;;3.78;3.38;;;11.10;96.70;;;;;;5054658;28;20553;-76
2022/01/20 09:29:30;;;;;;;5.07;3.70;;;11.20;96.70;;;;;;5069445;28;20044;-76
2022/01/20 09:32:03;;;;;;;5.32;3.50;;;11.20;96.70;;;;;;5094754;28;20433;-75
2022/01/20 09:34:34;;;;;;;4.85;3.17;;;11.00;96.70;;;;;;5072411;28;20437;-74
2022/01/20 09:37:03;;;;;;;3.35;2.80;;;11.00;96.70;;;;;;5063391;28;20089;-75
2022/01/20 09:39:38;;;;;;;4.38;3.25;;;10.90;96.70;;;;;;5069759;28;20028;-76
2022/01/20 09:42:34;;;;;;;3.40;2.63;;;10.80;96.70;;;;;;5075237;28;20147;-76
2022/01/20 09:45:02;;;;;;;2.92;2.10;;;10.70;96.70;;;;;;5079655;28;20232;-75
2022/01/20 09:47:30;;;;;;;2.28;2.08;;;10.70;96.70;;;;;;5076889;28;20059;-76
2022/01/20 09:50:23;;;;;;;3.72;2.60;;;10.90;96.70;;;;;;5058669;28;20051;-76
2022/01/20 09:53:16;;;;;;;3.38;2.30;;;11.00;96.70;;;;;;5078825;28;20041;-77
2022/01/20 09:56:03;;;;;;;4.03;3.63;;;11.10;96.70;;;;;;5071911;28;20098;-76
2022/01/20 09:58:37;;;;;;;4.25;3.55;;;11.00;96.70;;;;;;5068834;28;20040;-76
2022/01/20 10:01:05;;;;;;;3.67;3.25;;;10.80;96.70;;;;;;5071957;28;20044;-76
2022/01/20 10:03:37;;;;;;;4.20;3.17;;;10.70;96.70;;;;;;5062627;28;20068;-76
2022/01/20 10:06:06;;;;;;;4.10;3.70;;;10.60;96.70;;;;;;5072660;28;20291;-76
2022/01/20 10:08:40;;;;;;;4.47;3.60;;;10.60;96.70;;;;;;5059041;28;20041;-76
2022/01/20 10:11:22;;;;;;;5.60;4.72;;;10.60;96.70;;;;;;5080972;28;20076;-76
2022/01/20 10:14:19;;;;;;;4.53;4.00;;;10.60;96.70;;;;;;5083090;28;20044;-76
2022/01/20 10:16:58;;;;;;;5.03;3.65;;;10.60;96.70;;;;;;5080894;28;20044;-76
2022/01/20 10:19:31;;;;;;;3.47;3.17;;;10.60;96.70;;;;;;5082165;28;20047;-76
2022/01/20 10:22:14;;;;;;;4.10;3.47;;;10.50;96.70;;;;;;5082225;28;20047;-77
2022/01/20 10:25:03;;;;;;;4.30;3.38;;;10.50;96.70;;;;;;5080959;28;20048;-76
2022/01/20 10:27:59;;;;;;;3.67;2.95;;;10.60;96.70;;;;;;5071411;28;20044;-76
2022/01/20 10:30:30;;;;;;;4.13;3.22;;;10.70;96.70;;;;;;5061999;28;20456;-74
2022/01/20 10:33:00;;;;;;;3.35;3.05;;;10.70;96.70;;;;;;5071652;28;20052;-74
2022/01/20 10:35:41;;;;;;;3.00;2.70;;;10.80;96.70;;;;;;5068939;28;20588;-76
2022/01/20 10:38:28;;;;;;;2.83;2.63;;;10.80;96.70;;;;;;5069340;28;20074;-74
2022/01/20 10:41:00;;;;;;;3.85;2.88;;;10.90;96.70;;;;;;5072238;28;20042;-74
2022/01/20 10:43:35;;;;;;;3.85;2.83;;;10.90;96.70;;;;;;5081617;28;20048;-76
2022/01/20 10:46:48;;;;;;;2.10;1.90;;;11.00;96.70;;;;;;5007345;28;20527;-76
2022/01/20 10:49:30;;;;;;;2.78;2.28;;;11.10;96.70;;;;;;5001234;28;20050;-76
2022/01/20 10:52:02;;;;;;;2.00;1.80;;;11.10;96.70;;;;;;5035937;28;20570;-74
2022/01/20 10:54:40;;;;;;;2.75;1.90;;;11.10;96.70;;;;;;5076379;28;20047;-74
2022/01/20 10:57:12;;;;;;;3.30;2.40;;;11.10;96.70;;;;;;5071288;28;20123;-74
2022/01/20 10:59:53;;;;;;;4.40;2.17;;;11.20;96.70;;;;;;5072704;28;20043;-74
2022/01/20 11:02:30;;;;;;;2.50;2.00;;;11.30;96.70;;;;;;5072895;28;20450;-75
2022/01/20 11:04:59;;;;;;;2.60;2.28;;;11.30;96.70;;;;;;5085248;28;20044;-74
2022/01/20 11:07:28;;;;;;;5.07;2.40;;;11.50;96.70;;;;;;5068506;28;20048;-78
2022/01/20 11:10:05;;;;;;;2.33;2.05;;;11.70;96.70;;;;;;5083832;28;20048;-78
2022/01/20 11:12:46;;;;;;;2.80;2.35;;;11.80;96.70;;;;;;5080753;28;20044;-78
2022/01/20 11:15:29;;;;;;;2.53;1.80;;;11.90;96.70;;;;;;5081897;28;20101;-78
2022/01/20 11:17:58;;;;;;;2.20;1.60;;;11.90;96.70;;;;;;5084605;28;20040;-78
2022/01/20 11:20:38;;;;;;;4.00;1.88;;;12.00;96.70;;;;;;5084037;28;20732;-77
2022/01/20 11:23:09;;;;;;;;;;;12.00;96.70;;;;;;5079432;28;20051;-75
2022/01/20 11:26:03;;;;;;;3.55;2.25;;;11.80;96.70;;;;;;5079918;28;19930;-75
2022/01/20 11:28:59;;;;;;;3.55;1.80;;;11.80;96.70;;;;;;5070473;28;20459;-75
2022/01/20 11:31:52;;;;;;;2.92;1.65;;;11.90;96.70;;;;;;5061654;28;20056;-75
2022/01/20 11:34:59;;;;;;;4.55;2.72;;;11.90;96.70;;;;;;5080091;28;20040;-74
2022/01/20 11:37:32;;;;;;;2.55;2.15;;;11.80;96.70;;;;;;5073232;28;20074;-74
2022/01/20 11:40:13;;;;;;;2.08;1.80;;;11.70;96.70;;;;;;5074495;28;20044;-74
2022/01/20 11:42:41;;;;;;;4.45;2.25;;;11.70;96.70;;;;;;5084118;28;20047;-74
2022/01/20 11:45:26;;;;;;;3.17;2.35;;;11.70;96.70;;;;;;5073678;28;20123;-75
2022/01/20 11:47:56;;;;;;;3.67;2.00;;;11.70;96.70;;;;;;5078607;28;20409;-75
2022/01/20 11:50:25;;;;;;;2.80;2.15;;;11.70;96.70;;;;;;5081439;28;20048;-74
2022/01/20 11:52:53;;;;;;;4.03;2.72;;;11.80;96.70;;;;;;5075297;28;20032;-75
2022/01/20 11:55:28;;;;;;;3.17;2.28;;;11.80;96.70;;;;;;5076131;28;20040;-74
2022/01/20 11:57:57;;;;;;;3.63;2.58;;;11.80;96.70;;;;;;5082138;28;20624;-75
2022/01/20 12:00:28;;;;;;;5.68;2.05;;;11.90;96.70;;;;;;5080359;28;20048;-79
2022/01/20 12:03:09;;;;;;;3.70;2.30;;;12.00;96.70;;;;;;5074576;28;20059;-75
2022/01/20 12:05:44;;;;;;;2.88;1.77;;;12.00;96.70;;;;;;5072550;28;20455;-75
2022/01/20 12:08:30;;;;;;;2.92;2.15;;;12.00;96.70;;;;;;5076733;28;20089;-75
2022/01/20 12:11:00;;;;;;;4.13;2.40;;;12.10;96.70;;;;;;5072811;28;20029;-75
2022/01/20 12:13:28;;;;;;;4.45;2.15;;;12.10;96.70;;;;;;5076019;28;20047;-76
2022/01/20 12:15:59;;;;;;;2.40;2.00;;;12.20;96.70;;;;;;5076643;28;20120;-75
2022/01/20 12:18:30;;;;;;;9.18;2.70;;;12.20;96.70;;;;;;5073743;28;20475;-77
2022/01/20 12:21:01;;;;;;;4.65;3.03;;;12.20;96.70;;;;;;5080501;28;20046;-77
2022/01/20 12:23:42;;;;;;;5.28;2.85;;;12.30;96.70;;;;;;5055948;28;20505;-77
2022/01/20 12:26:11;;;;;;;4.70;2.83;;;12.30;96.70;;;;;;5068716;28;20090;-77
2022/01/20 12:28:40;;;;;;;4.65;2.65;;;12.30;96.70;;;;;;5081872;28;20032;-77
2022/01/20 12:31:14;;;;;;;4.53;2.97;;;12.40;96.70;;;;;;5077797;28;20040;-75
2022/01/20 12:33:46;;;;;;;6.43;3.40;;;12.40;96.70;;;;;;5078923;28;20043;-75
2022/01/20 12:36:16;;;;;;;5.63;3.15;;;12.50;96.70;;;;;;5073874;28;20068;-75
2022/01/20 12:38:48;;;;;;;4.28;2.97;;;12.50;96.70;;;;;;5082022;28;20039;-75
2022/01/20 12:41:20;;;;;;;4.68;2.90;;;12.60;96.70;;;;;;5068364;28;20052;-76
2022/01/20 12:43:53;;;;;;;5.65;2.47;;;12.90;96.70;;;;;;5080105;28;20072;-76
2022/01/20 12:46:23;;;;;;;5.82;3.50;;;13.30;96.70;;;;;;5070168;28;20553;-76
2022/01/20 12:48:58;;;;;;;4.93;3.63;;;13.60;96.70;;;;;;5068761;28;20044;-76
2022/01/20 12:51:34;;;;;;;7.03;2.85;;;13.80;96.70;;;;;;5072983;28;20063;-76
2022/01/20 12:54:08;;;;;;;5.05;3.28;;;13.80;96.70;;;;;;5074628;28;20062;-76
2022/01/20 12:56:37;;;;;;;4.53;3.20;;;13.60;96.70;;;;;;5077658;28;20044;-76
2022/01/20 12:59:06;;;;;;;8.07;4.13;;;13.30;96.70;;;;;;5071342;28;20040;-75
2022/01/20 13:01:55;;;;;;;4.90;3.50;;;13.20;96.70;;;;;;5072622;28;20419;-75
2022/01/20 13:04:26;;;;;;;6.95;3.42;;;13.30;96.70;;;;;;5069891;28;20521;-76
2022/01/20 13:07:00;;;;;;;5.22;3.90;;;13.30;96.70;;;;;;5070188;28;20040;-75
2022/01/20 13:09:40;;;;;;;8.25;6.68;;;13.50;96.70;;;;;;5064693;28;20105;-76
2022/01/20 13:12:10;;;;;;;7.40;4.22;;;13.50;96.70;;;;;;5084882;28;20040;-75
2022/01/20 13:14:41;;;;;;;6.00;4.32;;;13.50;96.70;;;;;;5078172;28;20382;-75
2022/01/20 13:17:12;;;;;;;7.03;4.72;;;13.60;96.70;;;;;;5071031;28;20491;-75
2022/01/20 13:19:44;;;;;;;7.45;4.55;;;13.80;96.70;;;;;;5074647;28;20036;-75
2022/01/20 13:22:24;;;;;;;5.22;4.43;;;13.60;96.70;;;;;;5077329;28;20517;-76
2022/01/20 13:24:53;;;;;;;7.90;4.50;;;13.60;96.70;;;;;;5073038;28;20131;-75
2022/01/20 13:27:22;;;;;;;6.70;4.88;;;13.60;96.70;;;;;;5071833;28;20044;-75
2022/01/20 13:29:51;;;;;;;7.50;5.00;;;13.60;96.70;;;;;;5067779;28;20455;-75
2022/01/20 13:32:20;;;;;;;6.95;4.60;;;13.60;96.70;;;;;;5075581;28;20052;-75
2022/01/20 13:34:57;;;;;;;7.78;5.25;;;13.60;96.70;;;;;;5077725;28;20093;-75
2022/01/20 13:37:26;;;;;;;6.10;4.45;;;13.70;96.70;;;;;;5075321;28;20516;-75
2022/01/20 13:39:56;;;;;;;10.07;5.00;;;13.70;96.70;;;;;;5079357;28;20108;-75
2022/01/20 13:45:00;;;;;;;7.97;4.57;;;13.50;96.70;;;;;;5071023;28;20495;-75
2022/01/20 13:45:38;;;;;;;7.82;4.63;;;13.50;96.70;;;;;;5077441;28;20045;-75
2022/01/20 13:48:07;;;;;;;8.07;4.70;;;13.50;96.70;;;;;;5073441;28;20306;-75
2022/01/20 13:50:38;;;;;;;7.20;4.93;;;13.40;96.70;;;;;;5074661;28;20051;-75
2022/01/20 13:53:12;;;;;;;8.30;5.22;;;13.50;96.70;;;;;;5077346;28;20029;-75
2022/01/20 13:55:43;;;;;;;6.57;4.82;;;13.40;96.70;;;;;;5074884;28;20036;-75
2022/01/20 13:58:22;;;;;;;7.03;4.65;;;13.40;96.70;;;;;;5078987;28;20501;-75
2022/01/20 14:00:50;;;;;;;10.00;5.13;;;13.30;96.70;;;;;;5072203;28;20036;-75
2022/01/20 14:03:20;;;;;;;8.43;5.70;;;13.20;96.70;;;;;;5072797;28;20048;-75
2022/01/20 14:05:52;;;;;;;10.18;5.20;;;13.20;96.70;;;;;;5071827;28;20498;-75
2022/01/20 14:08:21;;;;;;;7.07;5.72;;;13.10;96.70;;;;;;5074073;28;20044;-75
2022/01/20 14:10:50;;;;;;;11.40;6.00;;;13.00;96.70;;;;;;5074205;28;20064;-75
2022/01/20 14:13:23;;;;;;;8.88;6.30;;;12.90;96.70;;;;;;5080922;28;20043;-75
2022/01/20 14:15:52;;;;;;;9.75;6.03;;;12.80;96.70;;;;;;5070937;28;20445;-79
2022/01/20 14:18:22;;;;;;;9.75;6.60;;;12.70;96.70;;;;;;5072558;28;20481;-75